Time;durP1;ratioP1;P1;durP2;ratioP2;P2;SDS_P1;SDS_P2;PMS_P1;PMS_P2;Temp;Humidity;BMP_temperature;BMP_pressure;BME280_temperature;BME280_humidity;BME280_pressure;Samples;Min_cycle;Max_cycle;Signal;HPM_P1;HPM_P2
2021/06/11 00:01:31;;;;;;;0.00;0.00;;;;;;;;;;5033734;28;20261;-70
2021/06/11 00:03:56;;;;;;;0.00;0.00;;;;;;;;;;5018562;28;20030;-69
2021/06/11 00:06:22;;;;;;;0.00;0.00;;;;;;;;;;5016258;28;20025;-69
2021/06/11 00:08:47;;;;;;;0.00;0.00;;;;;;;;;;5017351;28;20109;-69
2021/06/11 00:11:12;;;;;;;0.00;0.00;;;;;;;;;;5020675;28;20647;-69
2021/06/11 00:13:37;;;;;;;0.00;0.00;;;;;;;;;;5017052;28;20343;-69
2021/06/11 00:16:02;;;;;;;0.00;0.00;;;;;;;;;;5034353;28;20264;-69
2021/06/11 00:18:28;;;;;;;0.00;0.00;;;;;;;;;;5014600;28;20799;-69
2021/06/11 00:20:54;;;;;;;0.00;0.00;;;;;;;;;;5021191;28;20385;-69
2021/06/11 00:23:19;;;;;;;0.00;0.00;;;;;;;;;;5020980;28;20644;-69
2021/06/11 00:25:44;;;;;;;0.00;0.00;;;;;;;;;;5039526;28;20087;-69
2021/06/11 00:28:10;;;;;;;0.00;0.00;;;;;;;;;;5016973;28;20025;-69
2021/06/11 00:30:35;;;;;;;0.00;0.00;;;;;;;;;;5017066;28;20033;-69
2021/06/11 00:33:01;;;;;;;0.00;0.00;;;;;;;;;;5023264;28;20280;-69
2021/06/11 00:35:26;;;;;;;0.00;0.00;;;;;;;;;;5038142;28;20155;-69
2021/06/11 00:37:51;;;;;;;0.00;0.00;;;;;;;;;;5022897;28;20418;-69
2021/06/11 00:40:16;;;;;;;0.00;0.00;;;;;;;;;;5020298;28;20033;-69
2021/06/11 00:42:42;;;;;;;0.00;0.00;;;;;;;;;;5020918;28;20295;-69
2021/06/11 00:45:07;;;;;;;0.00;0.00;;;;;;;;;;5036191;28;20055;-68
2021/06/11 00:47:32;;;;;;;0.00;0.00;;;;;;;;;;5017837;28;20068;-68
2021/06/11 00:49:58;;;;;;;0.00;0.00;;;;;;;;;;5020027;28;20021;-68
2021/06/11 00:52:23;;;;;;;0.00;0.00;;;;;;;;;;5023902;28;20387;-69
2021/06/11 00:54:48;;;;;;;0.00;0.00;;;;;;;;;;5040712;28;20805;-69
2021/06/11 00:57:14;;;;;;;0.00;0.00;;;;;;;;;;5039866;28;20347;-69
2021/06/11 00:59:41;;;;;;;0.00;0.00;;;;;;;;;;5033736;28;20273;-69
2021/06/11 01:02:06;;;;;;;0.00;0.00;;;;;;;;;;5033525;28;20041;-69
2021/06/11 01:04:32;;;;;;;0.00;0.00;;;;;;;;;;5016951;28;20107;-69
2021/06/11 01:06:57;;;;;;;0.00;0.00;;;;;;;;;;5020615;28;20056;-69
2021/06/11 01:09:22;;;;;;;0.00;0.00;;;;;;;;;;5039556;28;20021;-69
2021/06/11 01:11:47;;;;;;;0.00;0.00;;;;;;;;;;5029993;28;20367;-69
2021/06/11 01:14:12;;;;;;;0.00;0.00;;;;;;;;;;5017789;28;20381;-70
2021/06/11 01:16:38;;;;;;;0.00;0.00;;;;;;;;;;5036327;28;20260;-69
2021/06/11 01:19:03;;;;;;;0.00;0.00;;;;;;;;;;5022726;28;20017;-69
2021/06/11 01:21:29;;;;;;;0.00;0.00;;;;;;;;;;5038252;28;20022;-69
2021/06/11 01:24:14;;;;;;;0.00;0.00;;;;;;;;;;5016946;28;20031;-69
2021/06/11 01:26:39;;;;;;;0.00;0.00;;;;;;;;;;5026486;28;20068;-69
2021/06/11 01:29:05;;;;;;;0.00;0.00;;;;;;;;;;5035121;28;20018;-69
2021/06/11 01:31:32;;;;;;;0.00;0.00;;;;;;;;;;5025217;28;20026;-69
2021/06/11 01:33:58;;;;;;;0.00;0.00;;;;;;;;;;5028899;28;20125;-69
2021/06/11 01:36:24;;;;;;;0.00;0.00;;;;;;;;;;5042798;28;20374;-69
2021/06/11 01:38:49;;;;;;;0.00;0.00;;;;;;;;;;5037967;28;20026;-70
2021/06/11 01:41:15;;;;;;;0.00;0.00;;;;;;;;;;5043096;28;20013;-70
2021/06/11 01:43:41;;;;;;;0.00;0.00;;;;;;;;;;5042333;28;20322;-70
2021/06/11 01:46:08;;;;;;;0.00;0.00;;;;;;;;;;5034136;28;20049;-70
2021/06/11 01:48:33;;;;;;;0.00;0.00;;;;;;;;;;5035296;28;20025;-70
2021/06/11 01:50:58;;;;;;;0.00;0.00;;;;;;;;;;5018289;28;20390;-70
2021/06/11 01:53:23;;;;;;;0.00;0.00;;;;;;;;;;5021787;28;20269;-70
2021/06/11 01:55:49;;;;;;;0.00;0.00;;;;;;;;;;5043265;28;20025;-70
2021/06/11 01:58:16;;;;;;;0.00;0.00;;;;;;;;;;5019303;28;20268;-70
2021/06/11 02:00:41;;;;;;;0.00;0.00;;;;;;;;;;5042029;28;20609;-70
2021/06/11 02:03:07;;;;;;;0.00;0.00;;;;;;;;;;5039490;28;20025;-69
2021/06/11 02:05:32;;;;;;;0.00;0.00;;;;;;;;;;5022452;28;20041;-69
2021/06/11 02:07:57;;;;;;;0.00;0.00;;;;;;;;;;5039647;28;20029;-69
2021/06/11 02:10:22;;;;;;;0.00;0.00;;;;;;;;;;5028306;28;20031;-69
2021/06/11 02:12:48;;;;;;;0.00;0.00;;;;;;;;;;5044401;28;20470;-68
2021/06/11 02:15:13;;;;;;;0.00;0.00;;;;;;;;;;5023033;28;20029;-68
2021/06/11 02:17:39;;;;;;;0.00;0.00;;;;;;;;;;5033354;28;20025;-68
2021/06/11 02:20:06;;;;;;;0.00;0.00;;;;;;;;;;5019782;28;20030;-68
2021/06/11 02:22:32;;;;;;;0.00;0.00;;;;;;;;;;5016225;28;20029;-68
2021/06/11 02:24:58;;;;;;;0.00;0.00;;;;;;;;;;5039633;28;20075;-69
2021/06/11 02:27:23;;;;;;;0.00;0.00;;;;;;;;;;5019824;28;20033;-70
2021/06/11 02:29:48;;;;;;;0.00;0.00;;;;;;;;;;5012948;28;20542;-69
2021/06/11 02:32:14;;;;;;;0.00;0.00;;;;;;;;;;5038110;28;20061;-70
2021/06/11 02:34:42;;;;;;;0.00;0.00;;;;;;;;;;5029411;28;20046;-70
2021/06/11 02:37:07;;;;;;;0.00;0.00;;;;;;;;;;5016836;28;20277;-69
2021/06/11 02:39:32;;;;;;;0.00;0.00;;;;;;;;;;5041063;28;20108;-69
2021/06/11 02:41:59;;;;;;;0.00;0.00;;;;;;;;;;5040841;28;20018;-69
2021/06/11 02:44:24;;;;;;;0.00;0.00;;;;;;;;;;5039022;28;20752;-69
2021/06/11 02:47:00;;;;;;;0.00;0.00;;;;;;;;;;5037398;28;20029;-69
2021/06/11 02:49:25;;;;;;;;;;;;;;;;;;5039086;28;20312;-70
2021/06/11 02:51:51;;;;;;;0.00;0.00;;;;;;;;;;5023893;28;19966;-70
2021/06/11 02:54:23;;;;;;;0.00;0.00;;;;;;;;;;5004982;28;20118;-69
2021/06/11 02:56:53;;;;;;;0.00;0.00;;;;;;;;;;5019631;28;20092;-69
2021/06/11 02:59:26;;;;;;;0.00;0.00;;;;;;;;;;5041472;28;20029;-69
2021/06/11 03:01:53;;;;;;;0.00;0.00;;;;;;;;;;5037591;28;20026;-69
2021/06/11 03:04:18;;;;;;;0.00;0.00;;;;;;;;;;5038253;28;20071;-69
2021/06/11 03:06:45;;;;;;;0.00;0.00;;;;;;;;;;5037923;28;20474;-69
2021/06/11 03:09:12;;;;;;;0.00;0.00;;;;;;;;;;5035967;28;20029;-69
2021/06/11 03:11:40;;;;;;;0.00;0.00;;;;;;;;;;5037251;28;20010;-69
2021/06/11 03:14:05;;;;;;;0.00;0.00;;;;;;;;;;5037410;28;20030;-69
2021/06/11 03:16:30;;;;;;;0.00;0.00;;;;;;;;;;5041059;28;20021;-69
2021/06/11 03:19:15;;;;;;;0.00;0.00;;;;;;;;;;5021236;28;20838;-69
2021/06/11 03:21:42;;;;;;;0.00;0.00;;;;;;;;;;5022098;28;20378;-69
2021/06/11 03:24:09;;;;;;;0.00;0.00;;;;;;;;;;5005817;28;20028;-69
2021/06/11 03:26:43;;;;;;;0.00;0.00;;;;;;;;;;5005319;28;20022;-70
2021/06/11 03:29:09;;;;;;;0.00;0.00;;;;;;;;;;5021302;28;20429;-70
2021/06/11 03:31:39;;;;;;;0.00;0.00;;;;;;;;;;5005833;28;20121;-69
2021/06/11 03:34:05;;;;;;;0.00;0.00;;;;;;;;;;5018451;28;20121;-69
2021/06/11 03:36:41;;;;;;;0.00;0.00;;;;;;;;;;5022122;28;20025;-69
2021/06/11 03:39:06;;;;;;;;;;;;;;;;;;5020039;28;20052;-69
2021/06/11 03:41:32;;;;;;;0.00;0.00;;;;;;;;;;5021496;28;19972;-69
2021/06/11 03:43:57;;;;;;;0.00;0.00;;;;;;;;;;5038040;28;20044;-69
2021/06/11 03:46:23;;;;;;;0.03;0.03;;;;;;;;;;5034573;28;20053;-69
2021/06/11 03:48:49;;;;;;;0.00;0.00;;;;;;;;;;5038264;28;20265;-69
2021/06/11 03:51:17;;;;;;;0.00;0.00;;;;;;;;;;5037786;28;20028;-69
2021/06/11 03:53:42;;;;;;;0.00;0.00;;;;;;;;;;5021077;28;20053;-69
2021/06/11 03:56:08;;;;;;;0.00;0.00;;;;;;;;;;5034513;28;20068;-69
2021/06/11 03:58:33;;;;;;;0.00;0.00;;;;;;;;;;5021093;28;20286;-70
2021/06/11 04:00:58;;;;;;;0.00;0.00;;;;;;;;;;5025098;28;20030;-69
2021/06/11 04:03:24;;;;;;;0.00;0.00;;;;;;;;;;5019627;28;20075;-69
2021/06/11 04:05:50;;;;;;;0.00;0.00;;;;;;;;;;5021813;28;20036;-69
2021/06/11 04:08:19;;;;;;;0.00;0.00;;;;;;;;;;5039242;28;20300;-70
2021/06/11 04:10:54;;;;;;;0.00;0.00;;;;;;;;;;5018952;28;20037;-69
2021/06/11 04:13:20;;;;;;;;;;;;;;;;;;5021321;28;20057;-69
2021/06/11 04:15:47;;;;;;;0.00;0.00;;;;;;;;;;5020546;28;19944;-69
2021/06/11 04:18:13;;;;;;;0.00;0.00;;;;;;;;;;5021275;28;20021;-69
2021/06/11 04:20:38;;;;;;;0.00;0.00;;;;;;;;;;5023570;28;20026;-69
2021/06/11 04:23:03;;;;;;;0.00;0.00;;;;;;;;;;5007789;28;20033;-71
2021/06/11 04:25:29;;;;;;;0.00;0.00;;;;;;;;;;5021434;28;20748;-69
2021/06/11 04:27:54;;;;;;;0.00;0.00;;;;;;;;;;5022625;28;20017;-69
2021/06/11 04:30:20;;;;;;;0.00;0.00;;;;;;;;;;5022293;28;20072;-69
2021/06/11 04:32:45;;;;;;;0.00;0.00;;;;;;;;;;5005126;28;20022;-69
2021/06/11 04:35:10;;;;;;;0.00;0.00;;;;;;;;;;5038642;28;20017;-69
2021/06/11 04:37:36;;;;;;;0.00;0.00;;;;;;;;;;5021858;28;20654;-69
2021/06/11 04:40:03;;;;;;;0.00;0.00;;;;;;;;;;5021856;28;20274;-69
2021/06/11 04:42:28;;;;;;;0.00;0.00;;;;;;;;;;5020695;28;20037;-69
2021/06/11 04:44:53;;;;;;;0.00;0.00;;;;;;;;;;5002018;28;20046;-69
2021/06/11 04:47:18;;;;;;;0.00;0.00;;;;;;;;;;5018024;28;20694;-69
2021/06/11 04:49:44;;;;;;;0.05;0.05;;;;;;;;;;5020829;28;20026;-69
2021/06/11 04:52:09;;;;;;;0.10;0.10;;;;;;;;;;5020878;28;20113;-69
2021/06/11 04:54:34;;;;;;;0.00;0.00;;;;;;;;;;5019616;28;20025;-69
2021/06/11 04:57:00;;;;;;;0.00;0.00;;;;;;;;;;5025963;28;20021;-69
2021/06/11 04:59:25;;;;;;;0.00;0.00;;;;;;;;;;5005327;28;20028;-69
2021/06/11 05:01:50;;;;;;;0.00;0.00;;;;;;;;;;5021773;28;20045;-69
2021/06/11 05:04:15;;;;;;;0.00;0.00;;;;;;;;;;5023493;28;20268;-69
2021/06/11 05:06:41;;;;;;;0.00;0.00;;;;;;;;;;5025267;28;20304;-69
2021/06/11 05:09:06;;;;;;;0.00;0.00;;;;;;;;;;5006428;28;20330;-69
2021/06/11 05:11:31;;;;;;;0.00;0.00;;;;;;;;;;5025759;28;20755;-69
2021/06/11 05:13:56;;;;;;;0.00;0.00;;;;;;;;;;5009378;28;20022;-70
2021/06/11 05:16:21;;;;;;;0.00;0.00;;;;;;;;;;5025251;28;20738;-70
2021/06/11 05:18:47;;;;;;;0.00;0.00;;;;;;;;;;5025445;28;20257;-70
2021/06/11 05:21:12;;;;;;;0.00;0.00;;;;;;;;;;5039951;28;20026;-69
2021/06/11 05:23:37;;;;;;;0.00;0.00;;;;;;;;;;5039176;28;20621;-69
2021/06/11 05:26:02;;;;;;;0.03;0.03;;;;;;;;;;5023189;28;20080;-69
2021/06/11 05:28:27;;;;;;;0.00;0.00;;;;;;;;;;5040607;28;21068;-69
2021/06/11 05:30:53;;;;;;;0.10;0.10;;;;;;;;;;5021662;28;20030;-69
2021/06/11 05:33:18;;;;;;;0.00;0.00;;;;;;;;;;5024338;28;20296;-69
2021/06/11 05:35:43;;;;;;;0.00;0.00;;;;;;;;;;5044013;28;20028;-69
2021/06/11 05:38:12;;;;;;;0.00;0.00;;;;;;;;;;5023086;28;20077;-70
2021/06/11 05:40:46;;;;;;;0.00;0.00;;;;;;;;;;5023508;28;20026;-70
2021/06/11 05:43:11;;;;;;;0.00;0.00;;;;;;;;;;5024780;28;20028;-69
2021/06/11 05:45:37;;;;;;;0.00;0.00;;;;;;;;;;5041732;28;20053;-70
2021/06/11 05:48:02;;;;;;;0.00;0.00;;;;;;;;;;5041455;28;20056;-70
2021/06/11 05:50:28;;;;;;;0.00;0.00;;;;;;;;;;5021981;28;20036;-69
2021/06/11 05:52:53;;;;;;;0.00;0.00;;;;;;;;;;5025871;28;20606;-70
2021/06/11 05:55:19;;;;;;;0.00;0.00;;;;;;;;;;5022417;28;20030;-70
2021/06/11 05:57:44;;;;;;;0.00;0.00;;;;;;;;;;5036541;28;20537;-70
2021/06/11 06:00:09;;;;;;;0.00;0.00;;;;;;;;;;5021997;28;20023;-70
2021/06/11 06:02:35;;;;;;;0.00;0.00;;;;;;;;;;5024596;28;20268;-70
2021/06/11 06:05:00;;;;;;;0.00;0.00;;;;;;;;;;5040905;28;20100;-70
2021/06/11 06:07:25;;;;;;;0.00;0.00;;;;;;;;;;5025707;28;20018;-68
2021/06/11 06:09:51;;;;;;;0.00;0.00;;;;;;;;;;5028504;28;20029;-68
2021/06/11 06:12:16;;;;;;;0.00;0.00;;;;;;;;;;5039264;28;20010;-68
2021/06/11 06:14:42;;;;;;;0.00;0.00;;;;;;;;;;5029206;28;20493;-70
2021/06/11 06:17:07;;;;;;;0.00;0.00;;;;;;;;;;5010504;28;20022;-69
2021/06/11 06:19:32;;;;;;;0.00;0.00;;;;;;;;;;5023480;28;20028;-68
2021/06/11 06:21:58;;;;;;;0.00;0.00;;;;;;;;;;5039618;28;20260;-69
2021/06/11 06:24:23;;;;;;;0.00;0.00;;;;;;;;;;5027141;28;20022;-69
2021/06/11 06:26:48;;;;;;;0.00;0.00;;;;;;;;;;5035958;28;20337;-69
2021/06/11 06:29:13;;;;;;;0.00;0.00;;;;;;;;;;5028394;28;21213;-69
2021/06/11 06:31:38;;;;;;;0.00;0.00;;;;;;;;;;5041304;28;20265;-71
2021/06/11 06:34:04;;;;;;;0.00;0.00;;;;;;;;;;5025585;28;20067;-69
2021/06/11 06:36:31;;;;;;;0.00;0.00;;;;;;;;;;5042228;28;20022;-69
2021/06/11 06:39:00;;;;;;;0.00;0.00;;;;;;;;;;5025808;28;20029;-68
2021/06/11 06:41:25;;;;;;;0.00;0.00;;;;;;;;;;5043454;28;20432;-68
2021/06/11 06:43:50;;;;;;;0.00;0.00;;;;;;;;;;5022653;28;20111;-68
2021/06/11 06:46:21;;;;;;;0.00;0.00;;;;;;;;;;5022733;28;20291;-68
2021/06/11 06:48:46;;;;;;;0.00;0.00;;;;;;;;;;5012370;28;20028;-65
2021/06/11 06:51:11;;;;;;;0.10;0.10;;;;;;;;;;5021819;28;20025;-65
2021/06/11 06:53:37;;;;;;;0.00;0.00;;;;;;;;;;5025049;28;20025;-65
2021/06/11 06:56:02;;;;;;;0.00;0.00;;;;;;;;;;5034086;28;20667;-65
2021/06/11 06:58:27;;;;;;;0.00;0.00;;;;;;;;;;5033852;28;20268;-65
2021/06/11 07:00:52;;;;;;;0.00;0.00;;;;;;;;;;5037776;28;20320;-66
2021/06/11 07:03:17;;;;;;;0.00;0.00;;;;;;;;;;5016403;28;20363;-65
2021/06/11 07:05:43;;;;;;;0.00;0.00;;;;;;;;;;5038127;28;20974;-65
2021/06/11 07:08:08;;;;;;;0.00;0.00;;;;;;;;;;5023926;28;20033;-64
2021/06/11 07:10:33;;;;;;;0.00;0.00;;;;;;;;;;5022375;28;20049;-65
2021/06/11 07:12:58;;;;;;;0.00;0.00;;;;;;;;;;5021771;28;20272;-65
2021/06/11 07:15:23;;;;;;;0.00;0.00;;;;;;;;;;5019773;28;20338;-65
2021/06/11 07:17:48;;;;;;;0.00;0.00;;;;;;;;;;5022044;28;20822;-65
2021/06/11 07:20:14;;;;;;;0.00;0.00;;;;;;;;;;5031966;28;20265;-65
2021/06/11 07:22:39;;;;;;;0.00;0.00;;;;;;;;;;5039300;28;20121;-65
2021/06/11 07:25:05;;;;;;;0.00;0.00;;;;;;;;;;5038095;28;20026;-65
2021/06/11 07:27:32;;;;;;;0.00;0.00;;;;;;;;;;5018757;28;20051;-65
2021/06/11 07:29:59;;;;;;;0.00;0.00;;;;;;;;;;5024305;28;20132;-65
2021/06/11 07:32:24;;;;;;;0.00;0.00;;;;;;;;;;5017628;28;20025;-65
2021/06/11 07:34:56;;;;;;;0.00;0.00;;;;;;;;;;5007871;28;20464;-64
2021/06/11 07:37:28;;;;;;;0.00;0.00;;;;;;;;;;5103722;27;20743;-65
2021/06/11 07:39:56;;;;;;;0.00;0.00;;;;;;;;;;5070038;28;20012;-65
2021/06/11 07:42:22;;;;;;;0.00;0.00;;;;;;;;;;5069539;28;20026;-64
2021/06/11 07:44:47;;;;;;;0.00;0.00;;;;;;;;;;5070425;28;20024;-65
2021/06/11 07:47:12;;;;;;;0.00;0.00;;;;;;;;;;5069560;28;20017;-65
2021/06/11 07:49:41;;;;;;;0.00;0.00;;;;;;;;;;5088919;28;20726;-64
2021/06/11 07:52:07;;;;;;;0.00;0.00;;;;;;;;;;5085955;28;20107;-65
2021/06/11 07:54:32;;;;;;;0.00;0.00;;;;;;;;;;5088542;28;20095;-64
2021/06/11 07:56:57;;;;;;;0.00;0.00;;;;;;;;;;5088007;28;20526;-69
2021/06/11 07:59:24;;;;;;;0.00;0.00;;;;;;;;;;5091669;28;20052;-69
2021/06/11 08:01:49;;;;;;;0.00;0.00;;;;;;;;;;5090301;28;20020;-69
2021/06/11 08:04:14;;;;;;;0.00;0.00;;;;;;;;;;5090936;28;20016;-69
2021/06/11 08:06:39;;;;;;;0.00;0.00;;;;;;;;;;5072576;28;20274;-69
2021/06/11 08:09:05;;;;;;;0.00;0.00;;;;;;;;;;5090279;28;20071;-69
2021/06/11 08:11:30;;;;;;;0.00;0.00;;;;;;;;;;5091350;28;20643;-69
2021/06/11 08:13:55;;;;;;;0.00;0.00;;;;;;;;;;5073799;28;20031;-70
2021/06/11 08:16:21;;;;;;;0.00;0.00;;;;;;;;;;5090339;28;20361;-70
2021/06/11 08:18:46;;;;;;;0.00;0.00;;;;;;;;;;5079360;28;20081;-70
2021/06/11 08:21:11;;;;;;;0.00;0.00;;;;;;;;;;5089344;28;20028;-70
2021/06/11 08:23:36;;;;;;;0.00;0.00;;;;;;;;;;5071871;28;20017;-69
2021/06/11 08:26:02;;;;;;;0.00;0.00;;;;;;;;;;5088976;28;20017;-69
2021/06/11 08:28:27;;;;;;;0.00;0.00;;;;;;;;;;5090059;28;20269;-70
2021/06/11 08:30:52;;;;;;;0.00;0.00;;;;;;;;;;5089961;28;20293;-69
2021/06/11 08:33:17;;;;;;;0.00;0.00;;;;;;;;;;5089759;28;20062;-70
2021/06/11 08:35:42;;;;;;;0.00;0.00;;;;;;;;;;5088371;28;20090;-70
2021/06/11 08:38:08;;;;;;;0.00;0.00;;;;;;;;;;5088228;28;20019;-70
2021/06/11 08:40:33;;;;;;;0.00;0.00;;;;;;;;;;5071797;28;20027;-70
2021/06/11 08:42:58;;;;;;;0.00;0.00;;;;;;;;;;5088695;28;20290;-70
2021/06/11 08:45:23;;;;;;;0.00;0.00;;;;;;;;;;5071621;28;20025;-69
2021/06/11 08:47:50;;;;;;;0.00;0.00;;;;;;;;;;5063760;28;20271;-69
2021/06/11 08:50:17;;;;;;;0.00;0.00;;;;;;;;;;5074915;28;20381;-69
2021/06/11 08:52:43;;;;;;;0.00;0.00;;;;;;;;;;5075111;28;20021;-69
2021/06/11 08:55:08;;;;;;;0.00;0.00;;;;;;;;;;5058234;28;20039;-69
2021/06/11 08:57:33;;;;;;;0.00;0.00;;;;;;;;;;5058048;28;20047;-70
2021/06/11 08:59:59;;;;;;;0.00;0.00;;;;;;;;;;5075147;28;20024;-70
2021/06/11 09:02:24;;;;;;;0.00;0.00;;;;;;;;;;5075476;28;20263;-70
2021/06/11 09:04:54;;;;;;;0.00;0.00;;;;;;;;;;5076262;28;20060;-70
2021/06/11 09:07:31;;;;;;;0.00;0.00;;;;;;;;;;5058913;28;20627;-70
2021/06/11 09:10:02;;;;;;;0.00;0.00;;;;;;;;;;5076153;28;20074;-70
2021/06/11 09:12:37;;;;;;;0.00;0.00;;;;;;;;;;5077544;28;20026;-70
2021/06/11 09:15:04;;;;;;;0.00;0.00;;;;;;;;;;5082636;28;20016;-69
2021/06/11 09:17:35;;;;;;;0.00;0.00;;;;;;;;;;5077969;28;20028;-70
2021/06/11 09:20:04;;;;;;;0.00;0.00;;;;;;;;;;5076359;28;20021;-70
2021/06/11 09:22:45;;;;;;;0.00;0.00;;;;;;;;;;5074918;28;20134;-70
2021/06/11 09:25:24;;;;;;;0.00;0.00;;;;;;;;;;5055974;28;20016;-71
2021/06/11 09:27:49;;;;;;;0.00;0.00;;;;;;;;;;5064999;28;20438;-71
2021/06/11 09:30:15;;;;;;;0.00;0.00;;;;;;;;;;5076062;28;20048;-71
2021/06/11 09:32:40;;;;;;;0.00;0.00;;;;;;;;;;5076228;28;20403;-70
2021/06/11 09:35:06;;;;;;;0.00;0.00;;;;;;;;;;5073982;28;20040;-70
2021/06/11 09:37:34;;;;;;;0.00;0.00;;;;;;;;;;5074269;28;20028;-69
2021/06/11 09:40:03;;;;;;;0.00;0.00;;;;;;;;;;5057864;28;20025;-70
2021/06/11 09:42:29;;;;;;;0.00;0.00;;;;;;;;;;5075184;28;20008;-70
2021/06/11 09:44:58;;;;;;;0.00;0.00;;;;;;;;;;5074236;28;20039;-69
2021/06/11 09:47:30;;;;;;;0.00;0.00;;;;;;;;;;5073978;28;20468;-70
2021/06/11 09:49:55;;;;;;;0.00;0.00;;;;;;;;;;5057250;28;20520;-70
2021/06/11 09:52:20;;;;;;;0.00;0.00;;;;;;;;;;5073877;28;20059;-70
2021/06/11 09:54:46;;;;;;;0.00;0.00;;;;;;;;;;5073380;28;20290;-71
2021/06/11 09:57:18;;;;;;;0.00;0.00;;;;;;;;;;5073492;28;20021;-70
2021/06/11 09:59:43;;;;;;;0.00;0.00;;;;;;;;;;5073688;28;20040;-69
2021/06/11 10:02:20;;;;;;;0.00;0.00;;;;;;;;;;5056835;28;20047;-70
2021/06/11 10:04:46;;;;;;;0.00;0.00;;;;;;;;;;5073375;28;20491;-70
2021/06/11 10:07:12;;;;;;;0.00;0.00;;;;;;;;;;5073595;28;20032;-70
2021/06/11 10:09:37;;;;;;;0.00;0.00;;;;;;;;;;5073339;28;20426;-70
2021/06/11 10:12:03;;;;;;;0.00;0.00;;;;;;;;;;5073525;28;20032;-70
2021/06/11 10:14:28;;;;;;;0.00;0.00;;;;;;;;;;5056602;28;20275;-70
2021/06/11 10:16:54;;;;;;;0.00;0.00;;;;;;;;;;5072941;28;20020;-70
2021/06/11 10:19:19;;;;;;;0.00;0.00;;;;;;;;;;5073209;28;20021;-70
2021/06/11 10:21:45;;;;;;;0.00;0.00;;;;;;;;;;5072895;28;20258;-70
2021/06/11 10:24:10;;;;;;;0.00;0.00;;;;;;;;;;5072932;28;20048;-68
2021/06/11 10:26:35;;;;;;;0.00;0.00;;;;;;;;;;5074027;28;20073;-68
2021/06/11 10:29:00;;;;;;;0.00;0.00;;;;;;;;;;5056217;28;20017;-69
2021/06/11 10:31:26;;;;;;;0.00;0.00;;;;;;;;;;5072884;28;20082;-68
2021/06/11 10:33:56;;;;;;;0.00;0.00;;;;;;;;;;5072683;28;20262;-68
2021/06/11 10:36:24;;;;;;;0.00;0.00;;;;;;;;;;5072481;28;20123;-68
2021/06/11 10:38:53;;;;;;;0.00;0.00;;;;;;;;;;5074041;28;20099;-69
2021/06/11 10:41:19;;;;;;;0.00;0.00;;;;;;;;;;5054038;28;20119;-68
2021/06/11 10:43:44;;;;;;;0.00;0.00;;;;;;;;;;5072620;28;20092;-68
2021/06/11 10:46:23;;;;;;;0.00;0.00;;;;;;;;;;5072558;28;20081;-69
2021/06/11 10:49:03;;;;;;;0.00;0.00;;;;;;;;;;5068319;28;20490;-69
2021/06/11 10:51:31;;;;;;;0.00;0.00;;;;;;;;;;5080550;28;20024;-68
2021/06/11 10:54:34;;;;;;;0.00;0.00;;;;;;;;;;5073687;28;20427;-69
2021/06/11 10:57:00;;;;;;;0.00;0.00;;;;;;;;;;5043225;28;20025;-69
2021/06/11 10:59:32;;;;;;;0.00;0.00;;;;;;;;;;5051594;28;20029;-69
2021/06/11 11:01:57;;;;;;;0.00;0.00;;;;;;;;;;5061731;28;20473;-70
2021/06/11 11:04:27;;;;;;;0.00;0.00;;;;;;;;;;5073623;28;20017;-69
2021/06/11 11:06:52;;;;;;;0.00;0.00;;;;;;;;;;5072187;28;20024;-69
2021/06/11 11:09:17;;;;;;;0.00;0.00;;;;;;;;;;5055380;28;20020;-69
2021/06/11 11:11:45;;;;;;;0.00;0.00;;;;;;;;;;5071988;28;20017;-69
2021/06/11 11:14:29;;;;;;;0.00;0.00;;;;;;;;;;5072139;28;20024;-69
2021/06/11 11:16:54;;;;;;;;;;;;;;;;;;5072414;28;20036;-69
2021/06/11 11:19:20;;;;;;;0.00;0.00;;;;;;;;;;5073361;28;20390;-69
2021/06/11 11:21:45;;;;;;;0.00;0.00;;;;;;;;;;5071864;28;20085;-69
2021/06/11 11:24:13;;;;;;;0.00;0.00;;;;;;;;;;5055421;28;20020;-69
2021/06/11 11:26:39;;;;;;;0.00;0.00;;;;;;;;;;5073306;28;20024;-69
2021/06/11 11:29:05;;;;;;;0.00;0.00;;;;;;;;;;5071990;28;20025;-69
2021/06/11 11:31:30;;;;;;;0.00;0.00;;;;;;;;;;5054949;28;20407;-70
2021/06/11 11:33:55;;;;;;;0.00;0.00;;;;;;;;;;5072115;28;20031;-69
2021/06/11 11:36:21;;;;;;;0.00;0.00;;;;;;;;;;5071862;28;20065;-70
2021/06/11 11:38:46;;;;;;;0.00;0.00;;;;;;;;;;5071877;28;20016;-70
2021/06/11 11:41:12;;;;;;;0.00;0.00;;;;;;;;;;5054783;28;20044;-70
2021/06/11 11:43:37;;;;;;;0.00;0.00;;;;;;;;;;5072024;28;20025;-70
2021/06/11 11:46:02;;;;;;;0.00;0.00;;;;;;;;;;5071871;28;20020;-70
2021/06/11 11:48:27;;;;;;;0.00;0.00;;;;;;;;;;5071877;28;20368;-70
2021/06/11 11:50:52;;;;;;;0.00;0.00;;;;;;;;;;5071567;28;20095;-71
2021/06/11 11:53:18;;;;;;;0.00;0.00;;;;;;;;;;5072739;28;20274;-70
2021/06/11 11:55:43;;;;;;;0.00;0.00;;;;;;;;;;5071958;28;20028;-71
2021/06/11 11:58:08;;;;;;;0.00;0.00;;;;;;;;;;5071926;28;20016;-71
2021/06/11 12:00:33;;;;;;;0.00;0.00;;;;;;;;;;5073044;28;20044;-71
2021/06/11 12:02:59;;;;;;;0.00;0.00;;;;;;;;;;5073370;28;20255;-70
2021/06/11 12:05:24;;;;;;;0.00;0.00;;;;;;;;;;5073213;28;20346;-70
2021/06/11 12:07:49;;;;;;;0.00;0.00;;;;;;;;;;5071749;28;20128;-70
2021/06/11 12:10:14;;;;;;;0.00;0.00;;;;;;;;;;5054866;28;20435;-70
2021/06/11 12:12:40;;;;;;;0.00;0.00;;;;;;;;;;5071809;28;20468;-70
2021/06/11 12:15:05;;;;;;;0.00;0.00;;;;;;;;;;5071630;28;20766;-71
2021/06/11 12:17:30;;;;;;;0.00;0.00;;;;;;;;;;5071947;28;20027;-70
2021/06/11 12:19:56;;;;;;;0.00;0.00;;;;;;;;;;5071790;28;20098;-70
2021/06/11 12:22:21;;;;;;;0.00;0.00;;;;;;;;;;5073330;28;20316;-70
2021/06/11 12:24:46;;;;;;;0.00;0.00;;;;;;;;;;5075268;28;20021;-70
2021/06/11 12:27:11;;;;;;;0.00;0.00;;;;;;;;;;5058853;28;20108;-70
2021/06/11 12:29:36;;;;;;;0.00;0.00;;;;;;;;;;5075458;28;20027;-70
2021/06/11 12:32:02;;;;;;;0.00;0.00;;;;;;;;;;5075318;28;20283;-70
2021/06/11 12:34:27;;;;;;;0.00;0.00;;;;;;;;;;5075369;28;20270;-70
2021/06/11 12:36:52;;;;;;;0.00;0.00;;;;;;;;;;5074885;28;20056;-70
2021/06/11 12:39:17;;;;;;;0.00;0.00;;;;;;;;;;5075692;28;20251;-71
2021/06/11 12:41:43;;;;;;;0.00;0.00;;;;;;;;;;5076092;28;20266;-71
2021/06/11 12:44:15;;;;;;;0.00;0.00;;;;;;;;;;5075117;28;20263;-70
2021/06/11 12:46:40;;;;;;;0.00;0.00;;;;;;;;;;5058827;28;20052;-69
2021/06/11 12:49:06;;;;;;;0.00;0.00;;;;;;;;;;5074960;28;20020;-70
2021/06/11 12:51:34;;;;;;;0.00;0.00;;;;;;;;;;5074812;28;20367;-70
2021/06/11 12:54:00;;;;;;;0.00;0.00;;;;;;;;;;5058493;28;20101;-71
2021/06/11 12:56:26;;;;;;;0.00;0.00;;;;;;;;;;5074720;28;20058;-70
2021/06/11 12:58:51;;;;;;;0.00;0.00;;;;;;;;;;5058099;28;20020;-70
2021/06/11 13:01:16;;;;;;;0.00;0.00;;;;;;;;;;5074687;28;20056;-70
2021/06/11 13:03:41;;;;;;;0.00;0.00;;;;;;;;;;5057569;28;20111;-70
2021/06/11 13:06:07;;;;;;;0.00;0.00;;;;;;;;;;5073928;28;20077;-70
2021/06/11 13:08:35;;;;;;;0.00;0.00;;;;;;;;;;5074355;28;20424;-70
2021/06/11 13:11:01;;;;;;;0.00;0.00;;;;;;;;;;5057672;28;20392;-70
2021/06/11 13:13:26;;;;;;;0.00;0.00;;;;;;;;;;5057820;28;20024;-70
2021/06/11 13:15:52;;;;;;;0.00;0.00;;;;;;;;;;5075615;28;20112;-70
2021/06/11 13:18:18;;;;;;;0.00;0.00;;;;;;;;;;5057574;28;20016;-72
2021/06/11 13:20:43;;;;;;;0.00;0.00;;;;;;;;;;5091216;28;20044;-72
2021/06/11 13:23:09;;;;;;;0.00;0.00;;;;;;;;;;5075241;28;20020;-73
2021/06/11 13:25:34;;;;;;;0.00;0.00;;;;;;;;;;5073768;28;20020;-71
2021/06/11 13:28:00;;;;;;;0.00;0.00;;;;;;;;;;5074916;28;20097;-71
2021/06/11 13:30:25;;;;;;;0.00;0.00;;;;;;;;;;5075125;28;20270;-70
2021/06/11 13:32:50;;;;;;;0.00;0.00;;;;;;;;;;5057229;28;20472;-70
2021/06/11 13:35:15;;;;;;;0.00;0.00;;;;;;;;;;5074574;28;20047;-70
2021/06/11 13:37:40;;;;;;;0.00;0.00;;;;;;;;;;5077148;28;20461;-71
2021/06/11 13:40:06;;;;;;;0.00;0.00;;;;;;;;;;5094794;28;20027;-70
2021/06/11 13:42:31;;;;;;;0.00;0.00;;;;;;;;;;5101192;28;20016;-70
2021/06/11 13:44:56;;;;;;;0.00;0.00;;;;;;;;;;5105468;28;20046;-70
2021/06/11 13:47:21;;;;;;;0.00;0.00;;;;;;;;;;5094401;28;20063;-71
2021/06/11 13:49:47;;;;;;;0.00;0.00;;;;;;;;;;5092822;28;20025;-71
2021/06/11 13:52:12;;;;;;;0.00;0.00;;;;;;;;;;5094445;28;20379;-70
2021/06/11 13:54:37;;;;;;;0.00;0.00;;;;;;;;;;5092934;28;20028;-70
2021/06/11 13:57:03;;;;;;;0.00;0.00;;;;;;;;;;5091251;28;20023;-70
2021/06/11 13:59:28;;;;;;;0.00;0.00;;;;;;;;;;5102615;28;20277;-70
2021/06/11 14:01:54;;;;;;;0.00;0.00;;;;;;;;;;5087771;28;20380;-71
2021/06/11 14:04:19;;;;;;;0.00;0.00;;;;;;;;;;5090142;28;20368;-71
2021/06/11 14:06:44;;;;;;;0.00;0.00;;;;;;;;;;5072573;28;20027;-70
2021/06/11 14:09:09;;;;;;;0.00;0.00;;;;;;;;;;5083657;28;20031;-71
2021/06/11 14:11:35;;;;;;;0.00;0.00;;;;;;;;;;5107636;28;20027;-71
2021/06/11 14:14:15;;;;;;;0.00;0.00;;;;;;;;;;5074799;28;20393;-71
2021/06/11 14:16:40;;;;;;;0.00;0.00;;;;;;;;;;5073054;28;20155;-69
2021/06/11 14:19:05;;;;;;;0.00;0.00;;;;;;;;;;5078352;28;20482;-69
2021/06/11 14:21:31;;;;;;;0.00;0.00;;;;;;;;;;5074234;28;20265;-69
2021/06/11 14:23:56;;;;;;;0.00;0.00;;;;;;;;;;5063720;28;20019;-70
2021/06/11 14:26:21;;;;;;;0.00;0.00;;;;;;;;;;5082157;28;20028;-70
2021/06/11 14:28:46;;;;;;;0.00;0.00;;;;;;;;;;5078374;28;20280;-69
2021/06/11 14:31:12;;;;;;;0.00;0.00;;;;;;;;;;5078178;28;20024;-69
2021/06/11 14:33:37;;;;;;;0.00;0.00;;;;;;;;;;5102408;28;20081;-69
2021/06/11 14:36:03;;;;;;;0.00;0.00;;;;;;;;;;5070281;28;20547;-68
2021/06/11 14:38:29;;;;;;;0.00;0.00;;;;;;;;;;5066215;28;20030;-68